createdAt,value
2019-03-05T00:01:18.999Z,6.98
2019-03-05T00:03:45.724Z,6.98
2019-03-05T00:06:12.440Z,6.98
2019-03-05T00:08:39.151Z,6.89
2019-03-05T00:11:05.901Z,6.89
2019-03-05T00:13:38.120Z,6.95
2019-03-05T00:16:06.827Z,6.95
2019-03-05T00:18:33.543Z,7.00
2019-03-05T00:21:00.264Z,7.03
2019-03-05T00:23:57.252Z,7.03
2019-03-05T00:26:27.896Z,7.03
2019-03-05T00:29:06.319Z,6.95
2019-03-05T00:31:35.392Z,6.80
2019-03-05T00:34:17.600Z,6.87
2019-03-05T00:36:57.665Z,6.91
2019-03-05T00:39:57.561Z,6.91
2019-03-05T00:42:57.079Z,6.90
2019-03-05T00:45:44.041Z,6.85
2019-03-05T00:48:51.869Z,6.87
2019-03-05T00:52:02.708Z,6.87
2019-03-05T00:54:53.055Z,6.94
2019-03-05T00:57:47.556Z,6.88
2019-03-05T01:00:51.485Z,6.88
2019-03-05T01:03:50.976Z,6.82
2019-03-05T01:06:20.359Z,6.82
2019-03-05T01:08:47.102Z,6.81
2019-03-05T01:11:20.062Z,6.75
2019-03-05T01:13:51.895Z,6.81
2019-03-05T01:16:21.857Z,6.81
2019-03-05T01:18:48.556Z,6.83
2019-03-05T01:21:18.217Z,6.75
2019-03-05T01:23:44.860Z,6.87
2019-03-05T01:26:11.644Z,6.87
2019-03-05T01:28:38.385Z,6.87
2019-03-05T01:31:25.851Z,6.91
2019-03-05T01:34:06.116Z,6.91
2019-03-05T01:36:44.044Z,6.97
2019-03-05T01:39:45.442Z,6.98
2019-03-05T01:42:12.402Z,6.98
2019-03-05T01:44:39.132Z,6.98
2019-03-05T01:47:05.840Z,6.98
2019-03-05T01:49:32.678Z,7.01
2019-03-05T01:51:59.436Z,7.02
2019-03-05T01:54:26.158Z,7.02
2019-03-05T01:56:52.880Z,6.93
2019-03-05T01:59:20.104Z,6.94
2019-03-05T02:01:46.842Z,6.94
2019-03-05T02:04:13.837Z,6.96
2019-03-05T02:06:40.590Z,6.92
2019-03-05T02:09:07.712Z,6.92
2019-03-05T02:11:34.466Z,6.92
2019-03-05T02:14:01.534Z,6.92
2019-03-05T02:16:28.279Z,7.06
2019-03-05T02:19:33.671Z,7.02
2019-03-05T02:22:00.420Z,6.94
2019-03-05T02:25:18.206Z,6.97
2019-03-05T02:28:14.188Z,6.91
2019-03-05T02:31:03.599Z,6.94
2019-03-05T02:34:02.844Z,6.94
2019-03-05T02:36:54.519Z,6.94
2019-03-05T02:39:42.220Z,6.90
2019-03-05T02:42:42.513Z,6.90
2019-03-05T02:45:31.894Z,6.79
2019-03-05T02:48:52.605Z,6.79
2019-03-05T02:52:07.636Z,6.87
2019-03-05T02:55:00.629Z,6.87
2019-03-05T02:57:26.610Z,6.86
2019-03-05T02:59:53.336Z,6.91
2019-03-05T03:02:39.710Z,6.92
2019-03-05T03:05:36.151Z,7.00
2019-03-05T03:08:03.008Z,7.01
2019-03-05T03:10:29.813Z,7.01
2019-03-05T03:12:56.559Z,7.00
2019-03-05T03:15:23.287Z,7.00
2019-03-05T03:17:50.026Z,6.98
2019-03-05T03:20:17.727Z,6.98
2019-03-05T03:22:44.850Z,6.96
2019-03-05T03:25:13.970Z,7.03
2019-03-05T03:27:40.678Z,7.16
2019-03-05T03:30:10.001Z,7.16
2019-03-05T03:32:36.725Z,7.29
2019-03-05T03:35:04.616Z,7.29
2019-03-05T03:37:31.642Z,7.34
2019-03-05T03:39:58.400Z,7.31
2019-03-05T03:42:25.128Z,7.32
2019-03-05T03:44:52.213Z,7.25
2019-03-05T03:47:18.947Z,7.33
2019-03-05T03:49:45.650Z,7.32
2019-03-05T03:52:12.353Z,7.33
2019-03-05T03:54:39.051Z,7.33
2019-03-05T03:57:05.763Z,7.27
2019-03-05T03:59:32.459Z,7.27
2019-03-05T04:02:02.995Z,7.30
2019-03-05T04:04:29.712Z,7.27
2019-03-05T04:06:57.384Z,7.28
2019-03-05T04:09:24.110Z,7.29
2019-03-05T04:11:50.851Z,7.28
2019-03-05T04:14:17.530Z,7.28
2019-03-05T04:16:44.308Z,7.42
2019-03-05T04:19:13.710Z,7.40
2019-03-05T04:21:40.441Z,7.40
2019-03-05T04:24:07.181Z,7.38
2019-03-05T04:26:33.916Z,7.38
2019-03-05T04:29:00.656Z,7.33
2019-03-05T04:31:27.395Z,7.46
2019-03-05T04:33:54.228Z,7.39
2019-03-05T04:36:20.949Z,7.47
2019-03-05T04:38:47.663Z,7.48
2019-03-05T04:41:16.993Z,7.39
2019-03-05T04:43:46.835Z,7.42
2019-03-05T04:46:48.008Z,7.38
2019-03-05T04:49:37.379Z,7.49
2019-03-05T04:52:15.620Z,7.47
2019-03-05T04:54:42.378Z,7.38
2019-03-05T04:57:09.087Z,7.38
2019-03-05T04:59:35.828Z,7.37
2019-03-05T05:02:02.653Z,7.51
2019-03-05T05:04:29.365Z,7.43
2019-03-05T05:06:56.084Z,7.43
2019-03-05T05:09:22.800Z,7.38
2019-03-05T05:11:49.569Z,7.41
2019-03-05T05:14:16.312Z,7.41
2019-03-05T05:16:43.013Z,7.40
2019-03-05T05:19:09.784Z,7.53
2019-03-05T05:21:36.517Z,7.53
2019-03-05T05:24:03.259Z,7.45
2019-03-05T05:26:29.971Z,7.51
2019-03-05T05:28:56.716Z,7.40
2019-03-05T05:31:23.458Z,7.40
2019-03-05T05:33:50.300Z,7.43
2019-03-05T05:36:17.051Z,7.43
2019-03-05T05:38:43.790Z,7.43
2019-03-05T05:41:10.545Z,7.44
2019-03-05T05:43:37.286Z,7.38
2019-03-05T05:46:08.261Z,7.38
2019-03-05T05:48:34.981Z,7.34
2019-03-05T05:51:02.037Z,7.45
2019-03-05T05:53:28.846Z,7.33
2019-03-05T05:55:55.544Z,7.33
2019-03-05T05:58:22.260Z,7.31
2019-03-05T06:00:51.167Z,7.26
2019-03-05T06:03:18.215Z,7.37
2019-03-05T06:05:47.324Z,7.38
2019-03-05T06:08:14.038Z,7.38
2019-03-05T06:10:40.873Z,7.46
2019-03-05T06:13:07.572Z,7.50
2019-03-05T06:15:34.332Z,7.47
2019-03-05T06:18:01.037Z,7.43
2019-03-05T06:20:27.811Z,7.43
2019-03-05T06:22:54.519Z,7.36
2019-03-05T06:25:21.263Z,7.45
2019-03-05T06:27:48.126Z,7.34
2019-03-05T06:30:14.864Z,7.28
2019-03-05T06:32:41.601Z,7.28
2019-03-05T06:35:08.320Z,7.33
2019-03-05T06:37:36.975Z,7.28
2019-03-05T06:40:05.077Z,7.28
2019-03-05T06:42:32.202Z,7.27
2019-03-05T06:44:58.890Z,7.33
2019-03-05T06:47:25.603Z,7.33
2019-03-05T06:49:52.339Z,7.27
2019-03-05T06:52:19.083Z,7.16
2019-03-05T06:54:45.811Z,7.16
2019-03-05T06:57:12.541Z,7.26
2019-03-05T06:59:39.399Z,7.36
2019-03-05T07:02:06.112Z,7.27
2019-03-05T07:04:32.833Z,7.48
2019-03-05T07:07:00.971Z,7.47
2019-03-05T07:10:00.965Z,7.46
2019-03-05T07:12:53.031Z,7.46
2019-03-05T07:15:54.249Z,7.47
2019-03-05T07:18:24.871Z,7.47
2019-03-05T07:21:22.116Z,7.48
2019-03-05T07:24:37.468Z,7.54
2019-03-05T07:27:04.211Z,7.54
2019-03-05T07:29:30.964Z,7.52
2019-03-05T07:31:57.699Z,7.55
2019-03-05T07:34:27.675Z,7.59
2019-03-05T07:36:54.573Z,7.59
2019-03-05T07:39:22.071Z,7.63
2019-03-05T07:41:49.093Z,7.63
2019-03-05T07:44:15.823Z,7.72
2019-03-05T07:46:47.886Z,7.72
2019-03-05T07:49:14.626Z,7.76
2019-03-05T07:51:41.367Z,7.76
2019-03-05T07:54:10.193Z,7.78
2019-03-05T07:56:37.301Z,7.91
2019-03-05T07:59:04.025Z,8.00
2019-03-05T08:01:30.789Z,8.03
2019-03-05T08:03:57.935Z,8.08
2019-03-05T08:06:27.659Z,8.03
2019-03-05T08:09:31.482Z,8.05
2019-03-05T08:12:35.971Z,8.08
2019-03-05T08:15:22.615Z,8.04
2019-03-05T08:17:49.557Z,8.13
2019-03-05T08:20:16.726Z,8.13
2019-03-05T08:22:43.843Z,8.18
2019-03-05T08:25:10.707Z,8.27
2019-03-05T08:27:41.708Z,8.27
2019-03-05T08:30:14.455Z,8.32
2019-03-05T08:32:39.649Z,8.42
2019-03-05T08:35:07.591Z,8.36
2019-03-05T08:37:34.327Z,8.36
2019-03-05T08:40:01.060Z,8.22
2019-03-05T08:42:27.802Z,8.11
2019-03-05T08:44:54.740Z,8.10
2019-03-05T08:47:21.516Z,7.95
2019-03-05T08:49:48.271Z,7.89
2019-03-05T08:52:15.011Z,7.89
2019-03-05T08:54:41.750Z,7.75
2019-03-05T08:57:08.471Z,7.56
2019-03-05T08:59:35.201Z,7.56
2019-03-05T09:02:01.956Z,7.44
2019-03-05T09:04:28.708Z,7.62
2019-03-05T09:06:56.015Z,7.64
2019-03-05T09:09:22.773Z,7.57
2019-03-05T09:11:51.230Z,7.46
2019-03-05T09:14:18.410Z,7.46
2019-03-05T09:16:45.173Z,7.51
2019-03-05T09:19:12.312Z,7.40
2019-03-05T09:21:39.068Z,7.40
2019-03-05T09:24:07.048Z,7.43
2019-03-05T09:26:33.910Z,7.44
2019-03-05T09:29:01.009Z,7.44
2019-03-05T09:31:27.748Z,7.40
2019-03-05T09:33:54.496Z,7.40
2019-03-05T09:36:21.257Z,7.38
2019-03-05T09:38:47.986Z,7.38
2019-03-05T09:41:14.727Z,7.51
2019-03-05T09:43:42.326Z,7.40
2019-03-05T09:46:09.057Z,7.40
2019-03-05T09:48:36.230Z,7.44
2019-03-05T09:51:03.676Z,7.41
2019-03-05T09:53:30.420Z,7.54
2019-03-05T09:55:57.143Z,7.54
2019-03-05T09:58:23.965Z,7.54
2019-03-05T10:00:50.696Z,7.63
2019-03-05T10:03:18.447Z,7.61
2019-03-05T10:05:45.795Z,7.61
2019-03-05T10:08:12.536Z,7.69
2019-03-05T10:10:39.400Z,7.69
2019-03-05T10:13:06.785Z,7.70
2019-03-05T10:15:33.526Z,7.70
2019-03-05T10:18:11.855Z,7.59
2019-03-05T10:20:28.880Z,7.59
2019-03-05T10:22:58.192Z,7.63
2019-03-05T10:25:25.530Z,7.70
2019-03-05T10:27:52.392Z,7.83
2019-03-05T10:30:24.863Z,7.78
2019-03-05T10:32:55.513Z,7.86
2019-03-05T10:35:24.090Z,7.97
2019-03-05T10:37:51.844Z,7.98
2019-03-05T10:40:19.214Z,8.06
2019-03-05T10:42:46.321Z,8.16
2019-03-05T10:45:14.549Z,8.08
2019-03-05T10:47:41.314Z,8.16
2019-03-05T10:50:15.338Z,8.12
2019-03-05T10:52:39.638Z,8.20
2019-03-05T10:55:07.016Z,8.12
2019-03-05T10:57:33.738Z,8.09
2019-03-05T11:00:00.504Z,8.15
2019-03-05T11:02:29.150Z,8.15
2019-03-05T11:04:55.915Z,8.11
2019-03-05T11:07:24.052Z,8.09
2019-03-05T11:09:51.444Z,8.07
2019-03-05T11:12:18.230Z,8.04
2019-03-05T11:14:45.168Z,8.08
2019-03-05T11:17:12.576Z,8.10
2019-03-05T11:19:39.302Z,8.04
2019-03-05T11:22:06.070Z,8.04
2019-03-05T11:24:32.844Z,7.95
2019-03-05T11:27:00.055Z,8.00
2019-03-05T11:29:26.912Z,8.10
2019-03-05T11:31:53.618Z,8.10
2019-03-05T11:34:23.510Z,8.17
2019-03-05T11:36:50.362Z,8.14
2019-03-05T11:39:17.122Z,8.14
2019-03-05T11:41:43.838Z,8.06
2019-03-05T11:44:10.616Z,8.01
2019-03-05T11:46:37.474Z,8.00
2019-03-05T11:49:05.646Z,8.07
2019-03-05T11:51:34.996Z,8.09
2019-03-05T11:54:01.752Z,8.10
2019-03-05T11:56:28.880Z,8.08
2019-03-05T11:58:55.661Z,8.17
2019-03-05T12:01:26.849Z,8.09
2019-03-05T12:03:53.608Z,8.17
2019-03-05T12:06:21.006Z,8.17
2019-03-05T12:08:47.949Z,8.29
2019-03-05T12:11:16.136Z,8.27
2019-03-05T12:13:42.862Z,8.02
2019-03-05T12:16:11.491Z,8.19
2019-03-05T12:18:38.246Z,8.05
2019-03-05T12:21:05.023Z,8.05
2019-03-05T12:23:31.773Z,8.10
2019-03-05T12:25:58.789Z,8.10
2019-03-05T12:28:25.558Z,7.94
2019-03-05T12:30:52.304Z,7.95
2019-03-05T12:33:19.142Z,8.01
2019-03-05T12:35:46.648Z,8.01
2019-03-05T12:38:13.746Z,7.93
2019-03-05T12:40:40.892Z,7.93
2019-03-05T12:43:07.848Z,7.91
2019-03-05T12:45:34.606Z,7.97
2019-03-05T12:48:01.370Z,8.06
2019-03-05T12:50:28.230Z,8.08
2019-03-05T12:52:54.981Z,8.31
2019-03-05T12:55:21.844Z,8.31
2019-03-05T12:57:48.628Z,8.19
2019-03-05T13:00:19.440Z,8.10
2019-03-05T13:02:46.177Z,8.17
2019-03-05T13:05:14.363Z,8.15
2019-03-05T13:07:43.691Z,8.15
2019-03-05T13:10:12.467Z,8.35
2019-03-05T13:12:40.175Z,8.35
2019-03-05T13:15:09.033Z,8.37
2019-03-05T13:17:35.866Z,8.41
2019-03-05T13:20:03.015Z,8.39
2019-03-05T13:22:31.670Z,8.43
2019-03-05T13:24:59.164Z,8.47
2019-03-05T13:27:28.039Z,8.37
2019-03-05T13:29:54.911Z,8.32
2019-03-05T13:32:21.858Z,8.39
2019-03-05T13:34:48.650Z,8.47
2019-03-05T13:37:15.383Z,8.30
2019-03-05T13:39:42.273Z,8.21
2019-03-05T13:42:09.050Z,8.27
2019-03-05T13:44:35.892Z,8.24
2019-03-05T13:47:05.756Z,8.27
2019-03-05T13:50:42.340Z,8.37
2019-03-05T13:54:01.040Z,8.29
2019-03-05T13:56:37.792Z,8.24
2019-03-05T13:59:45.989Z,8.38
2019-03-05T14:02:16.113Z,8.31
2019-03-05T14:05:30.988Z,8.31
2019-03-05T14:08:35.592Z,8.34
2019-03-05T14:11:02.544Z,8.47
2019-03-05T14:13:29.823Z,8.58
2019-03-05T14:15:57.714Z,8.66
2019-03-05T14:18:24.597Z,8.70
2019-03-05T14:20:54.390Z,8.74
2019-03-05T14:23:21.141Z,8.74
2019-03-05T14:25:47.884Z,8.85
2019-03-05T14:28:15.029Z,8.82
2019-03-05T14:30:42.118Z,8.87
2019-03-05T14:33:08.896Z,8.92
2019-03-05T14:35:39.107Z,8.94
2019-03-05T14:38:06.187Z,9.11
2019-03-05T14:40:38.162Z,9.08
2019-03-05T14:43:07.921Z,8.93
2019-03-05T14:45:36.025Z,8.83
2019-03-05T14:48:07.767Z,8.91
2019-03-05T14:50:35.527Z,8.82
2019-03-05T14:53:05.023Z,8.81
2019-03-05T14:55:31.881Z,8.75
2019-03-05T14:57:59.164Z,8.77
2019-03-05T15:00:29.320Z,8.75
2019-03-05T15:02:58.840Z,8.73
2019-03-05T15:05:26.013Z,8.75
2019-03-05T15:07:52.785Z,8.63
2019-03-05T15:10:22.772Z,8.68
2019-03-05T15:12:49.554Z,8.50
2019-03-05T15:15:21.882Z,8.52
2019-03-05T15:17:49.253Z,8.56
2019-03-05T15:20:16.141Z,8.56
2019-03-05T15:22:42.961Z,8.63
2019-03-05T15:25:12.598Z,8.69
2019-03-05T15:27:42.109Z,8.80
2019-03-05T15:30:11.721Z,8.83
2019-03-05T15:32:41.558Z,8.84
2019-03-05T15:35:08.415Z,8.87
2019-03-05T15:37:35.135Z,8.98
2019-03-05T15:40:01.880Z,8.94
2019-03-05T15:42:28.892Z,8.88
2019-03-05T15:44:55.886Z,8.89
2019-03-05T15:47:22.636Z,8.90
2019-03-05T15:49:49.375Z,8.93
2019-03-05T15:52:16.092Z,8.93
2019-03-05T15:54:42.752Z,8.91
2019-03-05T15:57:10.032Z,8.82
2019-03-05T15:59:37.207Z,8.86
2019-03-05T16:02:03.992Z,8.97
2019-03-05T16:04:31.109Z,8.96
2019-03-05T16:06:57.844Z,8.96
2019-03-05T16:09:24.639Z,8.95
2019-03-05T16:11:53.390Z,8.92
2019-03-05T16:14:20.073Z,8.92
2019-03-05T16:16:51.635Z,9.00
2019-03-05T16:19:16.509Z,9.07
2019-03-05T16:21:44.657Z,8.99
2019-03-05T16:24:11.739Z,8.96
2019-03-05T16:26:38.851Z,9.03
2019-03-05T16:29:06.488Z,8.99
2019-03-05T16:32:07.985Z,9.00
2019-03-05T16:35:09.752Z,8.95
2019-03-05T16:37:47.590Z,8.89
2019-03-05T16:40:34.281Z,8.85
2019-03-05T16:43:11.351Z,8.83
2019-03-05T16:45:53.979Z,8.88
2019-03-05T16:48:40.486Z,8.90
2019-03-05T16:51:15.606Z,8.86
2019-03-05T16:54:16.817Z,8.85
2019-03-05T16:57:09.621Z,8.85
2019-03-05T16:59:54.931Z,8.75
2019-03-05T17:02:31.276Z,8.70
2019-03-05T17:05:29.691Z,8.61
2019-03-05T17:08:05.315Z,8.57
2019-03-05T17:10:46.693Z,8.62
2019-03-05T17:13:13.439Z,8.60
2019-03-05T17:15:40.191Z,8.62
2019-03-05T17:18:07.216Z,8.67
2019-03-05T17:20:36.387Z,8.66
2019-03-05T17:23:04.115Z,8.55
2019-03-05T17:25:30.907Z,8.46
2019-03-05T17:27:57.666Z,8.48
2019-03-05T17:30:24.376Z,8.50
2019-03-05T17:32:51.150Z,8.57
2019-03-05T17:35:17.951Z,8.59
2019-03-05T17:37:44.883Z,8.56
2019-03-05T17:40:11.829Z,8.48
2019-03-05T17:42:38.568Z,8.37
2019-03-05T17:45:09.798Z,8.40
2019-03-05T17:47:36.504Z,8.47
2019-03-05T17:50:03.344Z,8.37
2019-03-05T17:52:30.338Z,8.25
2019-03-05T17:54:57.084Z,8.32
2019-03-05T17:57:23.929Z,8.32
2019-03-05T17:59:50.815Z,8.35
2019-03-05T18:02:17.677Z,8.39
2019-03-05T18:04:44.720Z,8.28
2019-03-05T18:07:11.435Z,8.34
2019-03-05T18:09:38.187Z,8.24
2019-03-05T18:12:04.915Z,8.28
2019-03-05T18:14:32.096Z,8.36
2019-03-05T18:16:58.811Z,8.33
2019-03-05T18:19:25.614Z,8.30
2019-03-05T18:21:52.420Z,8.24
2019-03-05T18:24:19.255Z,8.29
2019-03-05T18:26:45.969Z,8.33
2019-03-05T18:29:12.820Z,8.39
2019-03-05T18:31:39.618Z,8.42
2019-03-05T18:34:06.650Z,8.47
2019-03-05T18:36:33.553Z,8.54
2019-03-05T18:39:00.498Z,8.56
2019-03-05T18:41:29.868Z,8.50
2019-03-05T18:43:56.588Z,8.46
2019-03-05T18:46:23.315Z,8.49
2019-03-05T18:48:50.570Z,8.55
2019-03-05T18:51:17.299Z,8.50
2019-03-05T18:53:44.018Z,8.46
2019-03-05T18:56:10.740Z,8.47
2019-03-05T18:58:37.462Z,8.50
2019-03-05T19:01:04.920Z,8.51
2019-03-05T19:03:33.602Z,8.51
2019-03-05T19:06:00.343Z,8.46
2019-03-05T19:08:27.182Z,8.44
2019-03-05T19:10:54.009Z,8.49
2019-03-05T19:13:20.760Z,8.45
2019-03-05T19:15:47.605Z,8.43
2019-03-05T19:18:14.368Z,8.39
2019-03-05T19:20:41.402Z,8.47
2019-03-05T19:23:08.132Z,8.38
2019-03-05T19:25:34.998Z,8.35
2019-03-05T19:28:01.739Z,8.35
2019-03-05T19:30:30.538Z,8.35
2019-03-05T19:32:57.258Z,8.42
2019-03-05T19:35:23.997Z,8.40
2019-03-05T19:37:51.038Z,8.44
2019-03-05T19:40:23.339Z,8.54
2019-03-05T19:42:50.546Z,8.59
2019-03-05T19:45:17.302Z,8.62
2019-03-05T19:47:44.023Z,8.62
2019-03-05T19:50:12.654Z,8.57
2019-03-05T19:52:39.385Z,8.59
2019-03-05T19:55:07.554Z,8.67
2019-03-05T19:57:34.285Z,8.78
2019-03-05T20:00:01.067Z,8.76
2019-03-05T20:02:27.895Z,8.75
2019-03-05T20:04:57.083Z,8.68
2019-03-05T20:07:23.806Z,8.62
2019-03-05T20:09:50.853Z,8.54
2019-03-05T20:12:17.870Z,8.58
2019-03-05T20:14:44.682Z,8.65
2019-03-05T20:17:11.958Z,8.64
2019-03-05T20:19:38.872Z,8.59
2019-03-05T20:22:05.833Z,8.60
2019-03-05T20:24:32.553Z,8.60
2019-03-05T20:26:59.688Z,8.64
2019-03-05T20:29:26.426Z,8.68
2019-03-05T20:31:53.218Z,8.77
2019-03-05T20:34:20.005Z,8.83
2019-03-05T20:36:47.467Z,8.97
2019-03-05T20:39:14.335Z,8.97
2019-03-05T20:41:41.494Z,8.92
2019-03-05T20:44:08.197Z,8.88
2019-03-05T20:46:36.830Z,8.94
2019-03-05T20:49:04.177Z,8.98
2019-03-05T20:51:31.928Z,8.91
2019-03-05T20:56:51.995Z,8.87
2019-03-05T20:59:18.729Z,8.84
2019-03-05T21:01:46.578Z,8.84
2019-03-05T21:04:13.323Z,8.85
2019-03-05T21:06:42.857Z,8.85
2019-03-05T21:09:26.082Z,8.84
2019-03-05T21:11:57.495Z,8.81
2019-03-05T21:14:25.562Z,8.83
2019-03-05T21:16:52.394Z,8.89
2019-03-05T21:19:19.208Z,8.94
2019-03-05T21:21:46.291Z,8.96
2019-03-05T21:24:16.038Z,8.87
2019-03-05T21:26:43.938Z,8.81
2019-03-05T21:29:12.994Z,8.88
2019-03-05T21:31:42.940Z,8.90
2019-03-05T21:34:09.766Z,8.95
2019-03-05T21:36:37.604Z,8.97
2019-03-05T21:39:12.157Z,8.91
2019-03-05T21:41:38.886Z,8.88
2019-03-05T21:44:05.922Z,8.81
2019-03-05T21:46:32.736Z,8.80
2019-03-05T21:48:59.486Z,8.89
2019-03-05T21:51:26.558Z,8.95
2019-03-05T21:53:53.714Z,9.01
2019-03-05T21:56:20.590Z,9.03
2019-03-05T21:58:47.320Z,9.11
2019-03-05T22:01:14.084Z,9.22
2019-03-05T22:03:40.910Z,9.26
2019-03-05T22:06:07.655Z,9.24
2019-03-05T22:08:34.512Z,9.20
2019-03-05T22:11:01.312Z,9.15
2019-03-05T22:13:28.370Z,9.19
2019-03-05T22:15:55.516Z,9.23
2019-03-05T22:18:22.244Z,9.13
2019-03-05T22:20:51.500Z,9.15
2019-03-05T22:23:18.230Z,9.20
2019-03-05T22:25:47.713Z,9.22
2019-03-05T22:28:14.470Z,9.24
2019-03-05T22:30:41.149Z,9.26
2019-03-05T22:33:08.620Z,9.20
2019-03-05T22:35:35.442Z,9.09
2019-03-05T22:38:02.172Z,9.00
2019-03-05T22:40:28.881Z,9.03
2019-03-05T22:42:56.033Z,9.13
2019-03-05T22:45:25.415Z,9.12
2019-03-05T22:47:52.220Z,9.13
2019-03-05T22:50:18.939Z,9.01
2019-03-05T22:52:45.688Z,8.88
2019-03-05T22:55:12.508Z,8.85
2019-03-05T22:57:39.334Z,8.79
2019-03-05T23:00:12.008Z,8.82
2019-03-05T23:02:38.790Z,8.92
2019-03-05T23:05:07.198Z,8.96
2019-03-05T23:07:33.918Z,8.96
2019-03-05T23:10:00.648Z,9.01
2019-03-05T23:12:27.362Z,9.03
2019-03-05T23:14:55.915Z,9.04
2019-03-05T23:17:22.854Z,9.08
2019-03-05T23:19:49.602Z,9.08
2019-03-05T23:22:16.373Z,9.02
2019-03-05T23:24:43.195Z,9.04
2019-03-05T23:27:09.963Z,9.05
2019-03-05T23:29:46.508Z,9.05
2019-03-05T23:32:14.289Z,9.02
2019-03-05T23:34:42.537Z,8.98
2019-03-05T23:37:09.453Z,9.00
2019-03-05T23:39:36.189Z,8.96
2019-03-05T23:42:03.010Z,8.94
2019-03-05T23:44:29.765Z,8.93
2019-03-05T23:46:56.547Z,8.91
2019-03-05T23:49:23.667Z,8.92
2019-03-05T23:51:50.408Z,8.94
2019-03-05T23:54:17.464Z,8.86
2019-03-05T23:56:44.232Z,8.81
2019-03-05T23:59:10.977Z,8.85
